Time;durP1;ratioP1;P1;durP2;ratioP2;P2;SDS_P1;SDS_P2;PMS_P1;PMS_P2;Temp;Humidity;BMP_temperature;BMP_pressure;BME280_temperature;BME280_humidity;BME280_pressure;Samples;Min_cycle;Max_cycle;Signal;HPM_P1;HPM_P2
2023/06/04 00:01:32;;;;;;;6.28;1.30;;;12.60;99.90;;;;;;4952043;29;20078;-78
2023/06/04 00:04:18;;;;;;;8.43;1.50;;;12.60;99.90;;;;;;4951962;29;20402;-78
2023/06/04 00:07:05;;;;;;;9.18;2.10;;;12.60;99.90;;;;;;4951690;29;20138;-78
2023/06/04 00:09:52;;;;;;;7.63;1.63;;;12.60;99.90;;;;;;4952005;29;20051;-78
2023/06/04 00:12:38;;;;;;;11.60;2.28;;;12.50;99.90;;;;;;4953358;28;20129;-77
2023/06/04 00:15:24;;;;;;;10.77;2.97;;;12.50;99.90;;;;;;5325170;23;20464;-78
2023/06/04 00:18:13;;;;;;;8.93;1.60;;;12.50;99.90;;;;;;4952090;28;20098;-77
2023/06/04 00:20:59;;;;;;;7.78;1.65;;;12.40;99.90;;;;;;4952967;28;20069;-77
2023/06/04 00:23:45;;;;;;;9.07;1.90;;;12.40;99.90;;;;;;4953331;28;20079;-78
2023/06/04 00:26:33;;;;;;;9.25;2.00;;;12.40;99.90;;;;;;4957103;28;20141;-78
2023/06/04 00:29:19;;;;;;;8.48;2.63;;;12.40;99.90;;;;;;4956326;28;20113;-77
2023/06/04 00:32:05;;;;;;;10.27;3.05;;;12.40;99.90;;;;;;4956632;28;20074;-77
2023/06/04 00:34:53;;;;;;;10.52;2.58;;;12.30;99.90;;;;;;4956027;29;20043;-78
2023/06/04 00:37:40;;;;;;;8.73;2.40;;;12.30;99.90;;;;;;4955834;29;20454;-77
2023/06/04 00:40:26;;;;;;;9.15;1.95;;;12.30;99.90;;;;;;4955811;29;20059;-78
2023/06/04 00:43:13;;;;;;;7.55;2.20;;;12.30;99.90;;;;;;4956351;28;20054;-77
2023/06/04 00:46:00;;;;;;;12.88;3.60;;;12.30;99.90;;;;;;4955392;29;20051;-76
2023/06/04 00:48:46;;;;;;;16.58;2.63;;;12.30;99.90;;;;;;4925233;29;20791;-76
2023/06/04 00:51:33;;;;;;;9.40;2.40;;;12.30;99.90;;;;;;4938881;29;20419;-78
2023/06/04 00:54:20;;;;;;;7.45;2.17;;;12.30;99.90;;;;;;4956159;28;20101;-77
2023/06/04 00:57:08;;;;;;;11.68;2.83;;;12.20;99.90;;;;;;4938785;29;20104;-77
2023/06/04 00:59:54;;;;;;;9.18;3.35;;;12.30;99.90;;;;;;4940918;29;20051;-76
2023/06/04 01:02:43;;;;;;;10.38;3.35;;;12.30;99.90;;;;;;4956404;28;20094;-77
2023/06/04 01:06:01;;;;;;;10.07;2.33;;;12.20;99.90;;;;;;4939442;28;20087;-77
2023/06/04 01:08:54;;;;;;;8.65;2.28;;;12.20;99.90;;;;;;4895909;29;20385;-78
2023/06/04 01:11:40;;;;;;;10.45;2.03;;;12.20;99.90;;;;;;4954097;29;20106;-78
2023/06/04 01:14:26;;;;;;;13.52;2.80;;;12.20;99.90;;;;;;4955272;28;20118;-78
2023/06/04 01:17:15;;;;;;;10.88;2.33;;;12.10;99.90;;;;;;4938750;28;20051;-77
2023/06/04 01:20:20;;;;;;;7.45;2.13;;;12.10;99.90;;;;;;4953691;28;20054;-78
2023/06/04 01:23:14;;;;;;;9.05;1.92;;;12.10;99.90;;;;;;4953485;29;20054;-78
2023/06/04 01:26:03;;;;;;;4.35;1.70;;;12.10;99.90;;;;;;4955570;28;20086;-77
2023/06/04 01:28:49;;;;;;;5.82;1.83;;;12.10;99.90;;;;;;4955025;29;20083;-78
2023/06/04 01:31:36;;;;;;;7.47;1.83;;;12.00;99.90;;;;;;4955189;29;20105;-77
2023/06/04 01:34:22;;;;;;;13.80;2.55;;;12.00;99.90;;;;;;4952674;29;20063;-78
2023/06/04 01:37:08;;;;;;;10.77;2.78;;;12.00;99.90;;;;;;4946534;29;20047;-77
2023/06/04 01:39:54;;;;;;;10.70;2.20;;;12.00;99.90;;;;;;4938962;28;20051;-78
2023/06/04 01:42:41;;;;;;;9.70;2.05;;;12.00;99.90;;;;;;4940036;29;20554;-78
2023/06/04 01:45:28;;;;;;;5.97;2.15;;;12.00;99.90;;;;;;4954667;29;20137;-78
2023/06/04 01:48:15;;;;;;;7.90;1.73;;;12.00;99.90;;;;;;4954148;29;20138;-77
2023/06/04 01:51:02;;;;;;;9.77;1.90;;;11.90;99.90;;;;;;4955677;28;20477;-78
2023/06/04 01:53:48;;;;;;;11.23;2.30;;;11.90;99.90;;;;;;4954501;28;20051;-79
2023/06/04 01:56:34;;;;;;;6.38;1.80;;;11.80;99.90;;;;;;4923844;29;20047;-78
2023/06/04 01:59:21;;;;;;;8.85;2.92;;;11.80;99.90;;;;;;4968966;28;20776;-80
2023/06/04 02:02:07;;;;;;;12.68;3.08;;;11.80;99.90;;;;;;4954226;29;20142;-79
2023/06/04 02:04:53;;;;;;;8.45;2.08;;;11.80;99.90;;;;;;4955076;28;20423;-79
2023/06/04 02:07:41;;;;;;;8.80;2.38;;;11.80;99.90;;;;;;4954829;28;20106;-79
2023/06/04 02:10:28;;;;;;;9.73;2.13;;;11.80;99.90;;;;;;4955592;28;20767;-80
2023/06/04 02:13:14;;;;;;;11.80;2.28;;;11.70;99.90;;;;;;4954504;28;20530;-78
2023/06/04 02:16:00;;;;;;;11.93;3.13;;;11.70;99.90;;;;;;4954344;28;20055;-77
2023/06/04 02:18:46;;;;;;;8.15;2.00;;;11.70;99.90;;;;;;4953051;29;20422;-78
2023/06/04 02:21:32;;;;;;;11.27;2.50;;;11.70;99.90;;;;;;4954664;28;20059;-78
2023/06/04 02:24:18;;;;;;;11.85;2.40;;;11.60;99.90;;;;;;4940433;29;20047;-78
2023/06/04 02:27:07;;;;;;;16.25;3.53;;;11.60;99.90;;;;;;4952996;28;20051;-78
2023/06/04 02:29:53;;;;;;;9.95;2.35;;;11.50;99.90;;;;;;4954603;28;20055;-78
2023/06/04 02:32:40;;;;;;;11.00;2.55;;;11.50;99.90;;;;;;4954382;29;20055;-78
2023/06/04 02:35:28;;;;;;;7.75;2.30;;;11.50;99.90;;;;;;4952706;29;20055;-79
2023/06/04 02:38:14;;;;;;;11.18;2.50;;;11.40;99.90;;;;;;4954218;29;20059;-78
2023/06/04 02:41:00;;;;;;;10.90;2.65;;;11.40;99.90;;;;;;4954068;28;20051;-78
2023/06/04 02:43:46;;;;;;;9.90;2.40;;;11.30;99.90;;;;;;4939594;29;20133;-78
2023/06/04 02:46:32;;;;;;;5.93;2.00;;;11.30;99.90;;;;;;4953718;28;20062;-78
2023/06/04 02:49:18;;;;;;;8.75;2.92;;;11.30;99.90;;;;;;4936728;29;20487;-78
2023/06/04 02:52:04;;;;;;;9.13;2.08;;;11.30;99.90;;;;;;4953351;29;20055;-79
2023/06/04 02:54:51;;;;;;;7.18;1.65;;;11.30;99.90;;;;;;4940300;28;20051;-78
2023/06/04 02:57:38;;;;;;;11.32;2.42;;;11.30;99.90;;;;;;4952372;29;20055;-79
2023/06/04 03:00:25;;;;;;;11.20;2.70;;;11.30;99.90;;;;;;4954369;28;20066;-78
2023/06/04 03:03:11;;;;;;;6.35;2.30;;;11.40;99.90;;;;;;4953200;28;20051;-79
2023/06/04 03:05:59;;;;;;;4.93;2.00;;;11.40;99.90;;;;;;4953912;28;20402;-79
2023/06/04 03:08:46;;;;;;;14.30;2.65;;;11.40;99.90;;;;;;4936832;28;20051;-79
2023/06/04 03:11:32;;;;;;;7.78;2.40;;;11.50;99.90;;;;;;4953262;29;20081;-78
2023/06/04 03:14:18;;;;;;;8.23;2.22;;;11.50;99.90;;;;;;4936110;28;20102;-79
2023/06/04 03:17:10;;;;;;;11.55;2.50;;;11.50;99.90;;;;;;4953131;29;20115;-78
2023/06/04 03:19:56;;;;;;;10.80;2.85;;;11.60;99.90;;;;;;4952231;29;20055;-78
2023/06/04 03:22:42;;;;;;;8.65;2.65;;;11.60;99.90;;;;;;4923376;29;20055;-78
2023/06/04 03:25:28;;;;;;;10.90;2.53;;;11.60;99.90;;;;;;4952833;29;20153;-78
2023/06/04 03:28:14;;;;;;;15.30;2.55;;;11.70;99.90;;;;;;4952623;29;20051;-75
2023/06/04 03:31:00;;;;;;;11.95;2.53;;;11.60;99.90;;;;;;4921980;29;20058;-75
2023/06/04 03:33:46;;;;;;;16.63;2.30;;;11.70;99.90;;;;;;4951358;29;20085;-78
2023/06/04 03:36:32;;;;;;;10.73;2.42;;;11.70;99.90;;;;;;4936055;29;20055;-78
2023/06/04 03:39:19;;;;;;;9.50;2.25;;;11.70;99.90;;;;;;4953690;28;20094;-77
2023/06/04 03:42:05;;;;;;;8.60;2.40;;;11.70;99.90;;;;;;4952392;28;20055;-78
2023/06/04 03:44:51;;;;;;;9.63;2.83;;;11.80;99.90;;;;;;4953247;28;20091;-78
2023/06/04 03:47:39;;;;;;;15.43;2.60;;;11.70;99.90;;;;;;4935991;29;20055;-79
2023/06/04 03:50:25;;;;;;;14.73;3.20;;;11.70;99.90;;;;;;4952942;28;20491;-78
2023/06/04 03:53:11;;;;;;;11.00;2.40;;;11.70;99.90;;;;;;4952727;29;20066;-78
2023/06/04 03:55:57;;;;;;;8.32;2.35;;;11.70;99.90;;;;;;4952220;29;20186;-78
2023/06/04 03:58:43;;;;;;;9.98;2.72;;;11.80;99.90;;;;;;4951787;28;20076;-79
2023/06/04 04:01:29;;;;;;;6.85;2.40;;;11.80;99.90;;;;;;4934809;29;20147;-78
2023/06/04 04:04:15;;;;;;;11.48;2.60;;;11.80;99.90;;;;;;4952180;29;20207;-78
2023/06/04 04:07:02;;;;;;;16.67;2.75;;;11.80;99.90;;;;;;4953817;28;20066;-77
2023/06/04 04:09:47;;;;;;;12.93;2.90;;;11.80;99.90;;;;;;4952336;29;20055;-77
2023/06/04 04:12:33;;;;;;;12.48;2.33;;;11.90;99.90;;;;;;4943876;29;20142;-78
2023/06/04 04:15:19;;;;;;;7.60;2.50;;;11.90;99.90;;;;;;4952679;28;20055;-77
2023/06/04 04:18:08;;;;;;;13.45;2.97;;;11.90;99.90;;;;;;4934904;29;20554;-77
2023/06/04 04:20:55;;;;;;;10.15;2.30;;;11.90;99.90;;;;;;4936694;29;20142;-77
2023/06/04 04:23:41;;;;;;;13.20;2.95;;;12.00;99.90;;;;;;4953524;29;20047;-77
2023/06/04 04:26:28;;;;;;;11.70;2.47;;;12.10;99.90;;;;;;4935422;29;20159;-77
2023/06/04 04:29:14;;;;;;;13.68;3.88;;;12.20;99.90;;;;;;4937973;29;20130;-77
2023/06/04 04:32:10;;;;;;;11.32;2.28;;;12.10;99.90;;;;;;4952239;29;20102;-77
2023/06/04 04:34:57;;;;;;;10.80;2.00;;;12.20;99.90;;;;;;4951638;29;20403;-77
2023/06/04 04:37:44;;;;;;;8.55;2.25;;;12.20;99.90;;;;;;4951673;29;20090;-78
2023/06/04 04:40:31;;;;;;;9.68;2.30;;;12.30;99.90;;;;;;4934768;29;20090;-77
2023/06/04 04:43:17;;;;;;;7.63;2.20;;;12.40;99.90;;;;;;4953803;28;20047;-78
2023/06/04 04:46:03;;;;;;;9.50;2.13;;;12.40;99.90;;;;;;4952667;28;20210;-77
2023/06/04 04:48:49;;;;;;;8.70;2.05;;;12.50;99.90;;;;;;4949843;29;20144;-77
2023/06/04 04:51:36;;;;;;;8.35;2.25;;;12.50;99.90;;;;;;4937603;29;20073;-78
2023/06/04 04:54:22;;;;;;;11.88;2.47;;;12.60;99.90;;;;;;4933871;29;20102;-78
2023/06/04 04:57:08;;;;;;;7.50;2.40;;;12.70;99.90;;;;;;4952399;28;20051;-77
2023/06/04 04:59:54;;;;;;;9.70;2.33;;;12.70;99.90;;;;;;4934331;29;20443;-77
2023/06/04 05:02:40;;;;;;;9.50;2.25;;;12.80;99.90;;;;;;4951806;29;20109;-78
2023/06/04 05:05:26;;;;;;;7.68;1.88;;;12.90;99.90;;;;;;4921385;29;20059;-77
2023/06/04 05:08:12;;;;;;;10.70;2.45;;;13.00;99.90;;;;;;4951825;29;20051;-77
2023/06/04 05:10:59;;;;;;;10.63;2.90;;;13.00;99.90;;;;;;4954474;28;20102;-77
2023/06/04 05:13:45;;;;;;;11.02;2.58;;;13.10;99.90;;;;;;4955315;28;20138;-78
2023/06/04 05:16:31;;;;;;;10.15;2.33;;;13.20;99.90;;;;;;4953199;29;20499;-79
2023/06/04 05:19:17;;;;;;;7.93;1.92;;;13.30;99.90;;;;;;4955425;28;20144;-77
2023/06/04 05:22:04;;;;;;;10.88;2.15;;;13.40;99.90;;;;;;4938198;29;20086;-79
2023/06/04 05:24:51;;;;;;;10.60;2.20;;;13.50;99.90;;;;;;4926057;28;20101;-78
2023/06/04 05:27:39;;;;;;;7.68;2.47;;;13.50;99.90;;;;;;4954840;29;20051;-79
2023/06/04 05:30:25;;;;;;;10.98;2.25;;;13.60;99.90;;;;;;4955778;28;20051;-79
2023/06/04 05:33:17;;;;;;;12.77;1.90;;;13.70;99.90;;;;;;4955452;29;20138;-79
2023/06/04 05:36:03;;;;;;;8.48;2.13;;;13.70;99.90;;;;;;4955258;29;20166;-77
2023/06/04 05:38:56;;;;;;;5.00;2.05;;;13.80;99.90;;;;;;4955232;29;20051;-78
2023/06/04 05:42:03;;;;;;;6.93;2.33;;;13.90;99.90;;;;;;4956505;28;20496;-79
2023/06/04 05:44:49;;;;;;;7.13;2.15;;;14.00;99.90;;;;;;4955444;28;20480;-78
2023/06/04 05:47:36;;;;;;;10.93;1.80;;;14.10;99.90;;;;;;4955217;28;20059;-78
2023/06/04 05:50:22;;;;;;;11.20;2.78;;;14.20;99.90;;;;;;4954605;29;20058;-79
2023/06/04 05:53:08;;;;;;;8.55;2.88;;;14.30;99.90;;;;;;4937036;29;20109;-78
2023/06/04 05:55:55;;;;;;;9.35;2.10;;;14.40;99.90;;;;;;4954376;29;20051;-77
2023/06/04 05:58:41;;;;;;;9.75;2.13;;;14.50;99.90;;;;;;4952942;29;20059;-78
2023/06/04 06:01:28;;;;;;;7.57;1.88;;;14.60;99.90;;;;;;4953595;29;20044;-79
2023/06/04 06:04:15;;;;;;;9.38;2.25;;;14.70;99.90;;;;;;4924875;29;20055;-80
2023/06/04 06:07:01;;;;;;;5.82;1.70;;;14.90;99.90;;;;;;4954276;29;20062;-79
2023/06/04 06:09:47;;;;;;;9.45;1.85;;;14.90;99.90;;;;;;4954290;29;20094;-79
2023/06/04 06:12:34;;;;;;;9.13;2.00;;;15.00;99.90;;;;;;4936954;29;20098;-80
2023/06/04 06:15:20;;;;;;;6.93;1.75;;;15.10;99.90;;;;;;4953716;28;20055;-80
2023/06/04 06:18:06;;;;;;;9.20;1.90;;;15.20;99.90;;;;;;4954247;29;20097;-79
2023/06/04 06:20:52;;;;;;;10.63;2.72;;;15.30;99.90;;;;;;4936462;29;20059;-78
2023/06/04 06:23:41;;;;;;;6.85;1.77;;;15.40;99.90;;;;;;4952979;29;20059;-79
2023/06/04 06:26:27;;;;;;;9.68;2.17;;;15.50;99.90;;;;;;4954063;29;20039;-78
2023/06/04 06:29:13;;;;;;;8.10;2.05;;;15.70;99.90;;;;;;4937654;29;20055;-80
2023/06/04 06:32:00;;;;;;;6.72;1.70;;;15.60;99.90;;;;;;4954364;29;20047;-78
2023/06/04 06:34:46;;;;;;;5.68;1.50;;;15.70;99.90;;;;;;4953643;28;20062;-78
2023/06/04 06:37:32;;;;;;;7.13;1.67;;;15.90;99.90;;;;;;4936790;29;20140;-78
2023/06/04 06:40:19;;;;;;;7.07;1.85;;;16.00;99.90;;;;;;4936515;29;20051;-78
2023/06/04 06:43:05;;;;;;;7.53;1.70;;;16.10;99.90;;;;;;4953264;29;20155;-79
2023/06/04 06:45:51;;;;;;;5.55;1.38;;;16.20;99.90;;;;;;4953783;29;20058;-78
2023/06/04 06:48:37;;;;;;;7.03;1.60;;;16.20;99.90;;;;;;4953751;28;20440;-78
2023/06/04 06:51:23;;;;;;;8.70;1.60;;;16.30;99.90;;;;;;4953425;29;20051;-79
2023/06/04 06:54:10;;;;;;;6.10;1.55;;;16.20;99.90;;;;;;4955154;28;20051;-78
2023/06/04 06:56:56;;;;;;;6.43;1.70;;;16.30;99.90;;;;;;4953450;29;20110;-77
2023/06/04 06:59:42;;;;;;;7.85;1.77;;;16.50;99.90;;;;;;4954002;29;20133;-78
2023/06/04 07:02:28;;;;;;;7.63;1.58;;;16.70;99.90;;;;;;4936949;28;20371;-78
2023/06/04 07:05:16;;;;;;;8.60;1.45;;;16.80;99.90;;;;;;4953590;29;20043;-78
2023/06/04 07:08:03;;;;;;;8.40;1.52;;;16.90;99.90;;;;;;4954320;28;20074;-79
2023/06/04 07:10:49;;;;;;;8.88;1.70;;;16.90;99.90;;;;;;4953423;29;20061;-79
2023/06/04 07:13:35;;;;;;;4.65;1.15;;;17.00;99.90;;;;;;4940186;28;20055;-79
2023/06/04 07:16:21;;;;;;;7.28;2.55;;;17.10;99.90;;;;;;4952647;28;20059;-78
2023/06/04 07:19:08;;;;;;;8.38;1.67;;;17.30;99.90;;;;;;4935696;29;20051;-78
2023/06/04 07:21:56;;;;;;;5.65;1.20;;;17.40;99.90;;;;;;4935779;29;20055;-77
2023/06/04 07:24:43;;;;;;;6.45;1.80;;;17.50;99.90;;;;;;4954034;28;20152;-78
2023/06/04 07:27:29;;;;;;;8.27;1.50;;;17.50;99.90;;;;;;4953085;29;20086;-78
2023/06/04 07:30:15;;;;;;;6.47;1.65;;;17.50;99.90;;;;;;4954538;28;20055;-79
2023/06/04 07:33:01;;;;;;;5.50;1.90;;;17.60;99.90;;;;;;4952960;28;20089;-79
2023/06/04 07:35:47;;;;;;;9.07;1.60;;;17.60;99.90;;;;;;4935376;29;20051;-79
2023/06/04 07:38:33;;;;;;;6.80;1.70;;;17.80;99.90;;;;;;4952078;28;20067;-78
2023/06/04 07:41:20;;;;;;;4.82;1.40;;;17.90;99.90;;;;;;4953201;28;20191;-78
2023/06/04 07:44:06;;;;;;;7.45;1.30;;;18.00;99.90;;;;;;4940062;28;20055;-78
2023/06/04 07:46:52;;;;;;;6.82;1.90;;;17.90;99.90;;;;;;4952611;29;20062;-78
2023/06/04 07:49:38;;;;;;;7.20;1.50;;;18.00;99.90;;;;;;4952718;29;20047;-78
2023/06/04 07:52:24;;;;;;;6.47;1.55;;;18.20;99.90;;;;;;4951389;29;20744;-78
2023/06/04 07:55:10;;;;;;;7.00;1.42;;;18.30;99.70;;;;;;4952343;29;20475;-80
2023/06/04 07:57:56;;;;;;;7.85;1.85;;;18.50;99.60;;;;;;4951533;28;20419;-80
2023/06/04 08:00:42;;;;;;;5.57;1.33;;;18.50;99.20;;;;;;4935209;29;20533;-79
2023/06/04 08:03:29;;;;;;;4.18;1.20;;;18.70;99.10;;;;;;4952078;29;20097;-79
2023/06/04 08:06:16;;;;;;;4.88;1.60;;;18.90;99.10;;;;;;4952610;29;20455;-80
2023/06/04 08:09:02;;;;;;;7.90;1.30;;;19.00;98.30;;;;;;4951885;29;20513;-79
2023/06/04 08:11:49;;;;;;;6.13;1.48;;;19.00;98.10;;;;;;4952815;29;20127;-79
2023/06/04 08:14:35;;;;;;;4.82;1.50;;;19.10;97.70;;;;;;4938035;28;20488;-79
2023/06/04 08:17:21;;;;;;;8.13;1.52;;;19.20;97.70;;;;;;4951559;29;20515;-79
2023/06/04 08:20:08;;;;;;;6.22;1.75;;;19.20;97.40;;;;;;4952705;28;20090;-79
2023/06/04 08:22:55;;;;;;;7.05;1.80;;;19.30;97.10;;;;;;4952270;29;20059;-79
2023/06/04 08:25:41;;;;;;;7.63;2.22;;;19.40;97.50;;;;;;4952852;28;20043;-79
2023/06/04 08:28:27;;;;;;;6.35;2.83;;;19.50;97.50;;;;;;4922926;29;20054;-78
2023/06/04 08:31:13;;;;;;;6.05;1.50;;;19.50;97.30;;;;;;4952140;29;20058;-79
2023/06/04 08:33:59;;;;;;;5.15;1.30;;;19.60;96.90;;;;;;4953664;28;20052;-79
2023/06/04 08:36:46;;;;;;;5.75;1.45;;;19.60;96.70;;;;;;4952689;28;20056;-80
2023/06/04 08:39:33;;;;;;;5.35;1.50;;;19.80;96.70;;;;;;4951706;28;20062;-80
2023/06/04 08:42:29;;;;;;;5.22;1.30;;;19.80;96.20;;;;;;4938022;29;20459;-79
2023/06/04 08:45:16;;;;;;;4.93;1.40;;;19.80;95.80;;;;;;4952608;28;20043;-79
2023/06/04 08:48:04;;;;;;;5.05;1.27;;;19.80;96.20;;;;;;4955793;28;20055;-80
2023/06/04 08:50:51;;;;;;;9.38;1.95;;;20.10;95.90;;;;;;4954009;29;20051;-79
2023/06/04 08:53:37;;;;;;;8.25;1.20;;;20.20;95.80;;;;;;4956060;28;20125;-79
2023/06/04 08:56:24;;;;;;;8.10;2.03;;;20.40;95.60;;;;;;4956262;28;20062;-79
2023/06/04 08:59:10;;;;;;;5.43;1.65;;;20.50;95.40;;;;;;4938006;29;20047;-79
2023/06/04 09:01:57;;;;;;;5.32;1.85;;;20.60;95.30;;;;;;4955030;29;20586;-79
2023/06/04 09:04:45;;;;;;;8.07;1.85;;;20.50;95.20;;;;;;4938304;29;20570;-79
2023/06/04 09:07:31;;;;;;;5.97;1.50;;;20.60;94.90;;;;;;4955269;29;20121;-79
2023/06/04 09:10:21;;;;;;;4.40;1.63;;;20.50;94.80;;;;;;4954842;29;20385;-79
2023/06/04 09:13:09;;;;;;;5.90;1.63;;;20.60;94.90;;;;;;4955169;28;20537;-79
2023/06/04 09:16:03;;;;;;;7.38;1.48;;;20.60;94.20;;;;;;4940911;28;20142;-79
2023/06/04 09:18:50;;;;;;;5.10;1.42;;;20.60;94.30;;;;;;4938434;29;20055;-79
2023/06/04 09:21:49;;;;;;;5.30;1.48;;;20.80;94.20;;;;;;4955222;29;20411;-79
2023/06/04 09:24:40;;;;;;;4.45;1.52;;;20.80;93.00;;;;;;4955452;28;20050;-79
2023/06/04 09:27:27;;;;;;;5.43;1.60;;;20.80;94.10;;;;;;4955590;28;20051;-79
2023/06/04 09:30:14;;;;;;;7.13;1.80;;;21.00;93.80;;;;;;4955265;29;20138;-79
2023/06/04 09:33:08;;;;;;;7.32;2.10;;;20.80;93.40;;;;;;4960931;28;20051;-78
2023/06/04 09:35:55;;;;;;;4.20;1.42;;;21.00;93.20;;;;;;4954235;29;20055;-78
2023/06/04 09:38:42;;;;;;;4.70;1.30;;;21.20;93.20;;;;;;4954174;29;20051;-78
2023/06/04 09:41:28;;;;;;;6.57;1.77;;;21.00;93.00;;;;;;4936907;29;20051;-78
2023/06/04 09:44:14;;;;;;;6.82;1.40;;;21.00;92.70;;;;;;4968797;28;20066;-78
2023/06/04 09:47:00;;;;;;;3.25;1.23;;;21.00;92.60;;;;;;4937278;29;20578;-79
2023/06/04 09:49:49;;;;;;;6.18;1.85;;;21.10;92.40;;;;;;4954571;29;20071;-79
2023/06/04 09:52:36;;;;;;;4.00;1.55;;;21.40;92.30;;;;;;4954537;28;20105;-79
2023/06/04 09:55:22;;;;;;;5.65;1.25;;;21.50;92.30;;;;;;4954743;29;20418;-80
2023/06/04 09:58:11;;;;;;;5.38;1.60;;;21.60;92.30;;;;;;4955129;28;20051;-78
2023/06/04 10:00:59;;;;;;;7.38;1.25;;;21.60;92.20;;;;;;4954572;29;20054;-79
2023/06/04 10:03:50;;;;;;;3.53;1.13;;;21.70;92.00;;;;;;4954667;29;20051;-78
2023/06/04 10:06:38;;;;;;;3.85;1.10;;;21.80;91.70;;;;;;4954195;29;20083;-79
2023/06/04 10:09:26;;;;;;;3.85;1.60;;;21.80;91.60;;;;;;4954881;28;20055;-79
2023/06/04 10:12:16;;;;;;;4.72;1.35;;;22.00;91.50;;;;;;4954308;29;20079;-80
2023/06/04 10:15:12;;;;;;;5.85;1.70;;;22.00;91.30;;;;;;4953726;28;20059;-78
2023/06/04 10:17:58;;;;;;;8.05;1.80;;;22.10;91.30;;;;;;4954055;29;20079;-78
2023/06/04 10:20:45;;;;;;;4.57;1.33;;;22.20;91.50;;;;;;4954955;28;20078;-78
2023/06/04 10:23:31;;;;;;;5.03;1.45;;;22.20;91.00;;;;;;4953211;29;20055;-79
2023/06/04 10:26:18;;;;;;;8.93;1.70;;;22.20;90.70;;;;;;4940744;28;20047;-79
2023/06/04 10:29:05;;;;;;;4.22;1.23;;;22.30;91.00;;;;;;4952570;29;20057;-79
2023/06/04 10:31:55;;;;;;;4.97;1.33;;;22.30;90.70;;;;;;4968539;28;20080;-79
2023/06/04 10:34:41;;;;;;;5.28;1.20;;;22.50;90.00;;;;;;4953831;29;20695;-79
2023/06/04 10:37:29;;;;;;;5.45;1.65;;;22.10;90.00;;;;;;4953402;29;20496;-79
2023/06/04 10:40:15;;;;;;;8.43;1.52;;;22.30;90.30;;;;;;4953003;29;20055;-78
2023/06/04 10:43:11;;;;;;;3.80;1.00;;;22.40;90.00;;;;;;4953386;29;20511;-79
2023/06/04 10:45:57;;;;;;;6.38;1.52;;;22.70;90.30;;;;;;4953110;29;20055;-78
2023/06/04 10:48:51;;;;;;;5.68;1.40;;;22.80;89.30;;;;;;4923424;29;20055;-79
2023/06/04 10:51:37;;;;;;;5.03;1.48;;;22.70;87.60;;;;;;4953962;29;20054;-79
2023/06/04 10:54:27;;;;;;;7.93;1.65;;;23.00;88.80;;;;;;4953739;29;20051;-78
2023/06/04 10:57:15;;;;;;;5.65;1.75;;;23.20;88.20;;;;;;4953443;29;20047;-78
2023/06/04 11:00:05;;;;;;;3.13;1.30;;;23.40;86.40;;;;;;4953229;29;20539;-79
2023/06/04 11:02:55;;;;;;;4.70;1.23;;;23.30;85.10;;;;;;4952846;29;20051;-79
2023/06/04 11:05:47;;;;;;;5.10;1.40;;;23.50;86.20;;;;;;4936668;29;20059;-78
2023/06/04 11:08:33;;;;;;;4.22;1.20;;;23.50;85.90;;;;;;4953561;28;20512;-79
2023/06/04 11:11:19;;;;;;;6.20;1.67;;;23.60;85.90;;;;;;4953049;29;20142;-78
2023/06/04 11:14:10;;;;;;;5.80;1.23;;;23.50;85.10;;;;;;4935960;29;20067;-79
2023/06/04 11:16:56;;;;;;;4.65;1.38;;;23.70;85.60;;;;;;4933732;29;20055;-78
2023/06/04 11:19:42;;;;;;;9.52;2.13;;;23.80;84.50;;;;;;4932401;29;20059;-79
2023/06/04 11:22:28;;;;;;;6.25;1.70;;;23.70;83.60;;;;;;4916633;29;20075;-78
2023/06/04 11:25:14;;;;;;;5.25;1.65;;;23.50;83.40;;;;;;4933544;29;20500;-78
2023/06/04 11:28:01;;;;;;;4.88;1.38;;;23.70;84.80;;;;;;4932593;29;20048;-78
2023/06/04 11:31:05;;;;;;;4.53;1.20;;;23.70;84.00;;;;;;4933523;29;20062;-79
2023/06/04 11:33:51;;;;;;;4.10;1.23;;;23.90;83.40;;;;;;4933182;29;20062;-77
2023/06/04 11:36:37;;;;;;;5.35;1.50;;;23.80;84.10;;;;;;4915878;29;20060;-78
2023/06/04 11:39:35;;;;;;;4.57;1.35;;;23.70;83.80;;;;;;4932729;29;20083;-76
2023/06/04 11:42:21;;;;;;;7.22;1.70;;;24.00;83.80;;;;;;4933580;28;20555;-76
2023/06/04 11:45:08;;;;;;;6.13;1.65;;;24.00;83.40;;;;;;4904047;29;20559;-76
2023/06/04 11:47:55;;;;;;;3.97;1.20;;;24.00;83.90;;;;;;4934366;28;20056;-76
2023/06/04 11:50:41;;;;;;;6.50;1.40;;;24.00;83.10;;;;;;4919296;29;20063;-79
2023/06/04 11:53:29;;;;;;;6.10;1.55;;;24.30;83.10;;;;;;4932710;29;20075;-77
2023/06/04 11:56:16;;;;;;;5.57;1.30;;;24.30;82.10;;;;;;4931118;29;20063;-76
2023/06/04 11:59:02;;;;;;;3.78;1.20;;;24.50;81.90;;;;;;4918479;29;20051;-79
2023/06/04 12:01:49;;;;;;;6.78;1.65;;;24.60;82.00;;;;;;4916073;29;20138;-76
2023/06/04 12:04:35;;;;;;;4.18;1.30;;;24.80;82.10;;;;;;4931656;29;20514;-78
2023/06/04 12:07:25;;;;;;;4.30;1.10;;;24.80;81.90;;;;;;4932920;29;20052;-79
2023/06/04 12:10:11;;;;;;;4.07;1.50;;;24.80;80.10;;;;;;4932539;29;20043;-79
2023/06/04 12:12:57;;;;;;;6.68;2.15;;;24.80;79.90;;;;;;4918228;28;20110;-76
2023/06/04 12:15:52;;;;;;;6.47;1.85;;;24.70;80.50;;;;;;4944786;28;20408;-76
2023/06/04 12:18:38;;;;;;;5.35;1.20;;;25.40;79.50;;;;;;4951749;29;20113;-77
2023/06/04 12:21:28;;;;;;;5.88;1.75;;;25.40;78.70;;;;;;4954253;28;20081;-77
2023/06/04 12:24:15;;;;;;;4.22;0.77;;;25.70;79.60;;;;;;4926139;29;20503;-78
2023/06/04 12:27:09;;;;;;;8.63;1.80;;;25.30;77.90;;;;;;4955312;28;20054;-79
2023/06/04 12:30:03;;;;;;;5.70;1.63;;;25.10;77.50;;;;;;4956006;29;20047;-79
2023/06/04 12:32:50;;;;;;;4.60;1.35;;;25.40;77.40;;;;;;4955028;29;20055;-79
2023/06/04 12:35:36;;;;;;;3.85;1.63;;;25.40;78.20;;;;;;4956364;29;20459;-79
2023/06/04 12:38:22;;;;;;;6.60;1.52;;;25.90;76.80;;;;;;4938745;29;20114;-77
2023/06/04 12:41:08;;;;;;;7.38;1.80;;;25.90;76.00;;;;;;4956068;29;20090;-78
2023/06/04 12:43:55;;;;;;;5.38;1.52;;;25.60;76.50;;;;;;4938327;29;20058;-78
2023/06/04 12:46:41;;;;;;;4.88;1.42;;;25.70;75.60;;;;;;4969983;28;20114;-77
2023/06/04 12:49:27;;;;;;;9.05;1.63;;;25.80;75.60;;;;;;4939412;28;20051;-78
2023/06/04 12:52:14;;;;;;;6.13;1.60;;;25.90;74.60;;;;;;4955471;29;20082;-78
2023/06/04 12:55:00;;;;;;;3.97;1.45;;;26.30;73.50;;;;;;4941147;29;20058;-77
2023/06/04 12:57:46;;;;;;;4.50;1.40;;;25.80;74.00;;;;;;4955241;29;20051;-79
2023/06/04 13:00:32;;;;;;;5.78;2.15;;;26.40;73.90;;;;;;4955287;29;20055;-78
2023/06/04 13:03:18;;;;;;;2.60;0.95;;;26.50;73.70;;;;;;4955956;28;20055;-77
2023/06/04 13:06:04;;;;;;;6.88;1.58;;;26.90;72.40;;;;;;4937955;29;20094;-77
2023/06/04 13:08:50;;;;;;;5.65;1.65;;;27.00;71.10;;;;;;4956607;28;20051;-78
2023/06/04 13:11:41;;;;;;;7.38;1.40;;;26.90;71.20;;;;;;4954452;29;20105;-78
2023/06/04 13:14:30;;;;;;;3.42;1.20;;;27.30;69.20;;;;;;4956213;28;21333;-78
2023/06/04 13:17:16;;;;;;;7.00;1.67;;;27.40;69.30;;;;;;4955925;29;20051;-77
2023/06/04 13:20:03;;;;;;;4.25;1.20;;;27.50;69.30;;;;;;4955616;28;20149;-78
2023/06/04 13:22:49;;;;;;;4.90;1.63;;;27.40;68.70;;;;;;4938064;29;20055;-78
2023/06/04 13:25:36;;;;;;;4.90;1.63;;;27.40;69.60;;;;;;4955417;29;20458;-78
2023/06/04 13:28:22;;;;;;;7.35;1.58;;;27.50;68.20;;;;;;4955739;28;20047;-78
2023/06/04 13:31:08;;;;;;;5.82;1.25;;;27.30;68.30;;;;;;4937846;29;20058;-76
2023/06/04 13:33:54;;;;;;;3.80;1.33;;;27.30;68.00;;;;;;4955186;28;20055;-77
2023/06/04 13:36:40;;;;;;;8.75;1.52;;;27.40;67.20;;;;;;4954483;29;20051;-80
2023/06/04 13:39:26;;;;;;;4.50;1.13;;;27.00;67.00;;;;;;4937711;29;20055;-79
2023/06/04 13:42:12;;;;;;;6.03;1.63;;;27.10;66.20;;;;;;4937828;29;20554;-79
2023/06/04 13:44:59;;;;;;;5.45;1.30;;;27.20;65.70;;;;;;4954835;29;20055;-77
2023/06/04 13:47:45;;;;;;;6.13;1.73;;;27.10;66.40;;;;;;4954281;29;20832;-76
2023/06/04 13:50:31;;;;;;;3.67;1.20;;;27.30;66.70;;;;;;4955137;29;20082;-77
2023/06/04 13:53:18;;;;;;;5.50;1.52;;;27.20;66.10;;;;;;4952795;29;20171;-77
2023/06/04 13:56:04;;;;;;;5.03;1.20;;;27.40;65.10;;;;;;4953416;28;20529;-77
2023/06/04 13:58:50;;;;;;;3.83;1.50;;;27.50;64.40;;;;;;4954393;29;20093;-78
2023/06/04 14:01:36;;;;;;;5.28;1.23;;;27.50;64.10;;;;;;4954978;28;20479;-78
2023/06/04 14:04:22;;;;;;;6.05;1.27;;;27.70;64.80;;;;;;4937545;29;20406;-77
2023/06/04 14:07:08;;;;;;;4.88;1.25;;;27.40;63.50;;;;;;4937054;29;20043;-78
2023/06/04 14:09:54;;;;;;;5.90;1.77;;;27.60;63.50;;;;;;4953500;28;20455;-77
2023/06/04 14:12:40;;;;;;;6.65;1.30;;;27.80;63.10;;;;;;4954193;28;20086;-78
2023/06/04 14:15:26;;;;;;;6.85;1.33;;;27.80;62.70;;;;;;4939850;28;20043;-77
2023/06/04 14:18:12;;;;;;;4.18;1.23;;;27.70;62.60;;;;;;4954270;29;20062;-79
2023/06/04 14:20:59;;;;;;;5.28;1.20;;;28.10;62.60;;;;;;4954173;29;20051;-79
2023/06/04 14:23:45;;;;;;;7.28;1.52;;;28.00;62.00;;;;;;4953302;28;20047;-79
2023/06/04 14:26:31;;;;;;;5.20;1.75;;;28.50;61.80;;;;;;4953981;29;20491;-78
2023/06/04 14:29:17;;;;;;;4.78;1.92;;;28.50;61.10;;;;;;4936533;29;20055;-79